createdAt,value
2019-01-13T00:00:43.549Z,6.70
2019-01-13T00:01:43.528Z,6.64
2019-01-13T00:02:43.523Z,6.64
2019-01-13T00:03:43.510Z,6.74
2019-01-13T00:04:43.552Z,6.66
2019-01-13T00:05:43.480Z,6.70
2019-01-13T00:06:43.477Z,6.67
2019-01-13T00:07:43.475Z,6.69
2019-01-13T00:08:43.456Z,6.67
2019-01-13T00:09:43.452Z,6.69
2019-01-13T00:10:43.492Z,6.66
2019-01-13T00:11:43.422Z,6.75
2019-01-13T00:12:43.514Z,6.66
2019-01-13T00:13:43.396Z,6.64
2019-01-13T00:14:43.442Z,6.75
2019-01-13T00:15:43.372Z,6.75
2019-01-13T00:16:43.442Z,6.70
2019-01-13T00:17:43.348Z,6.74
2019-01-13T00:18:43.336Z,6.77
2019-01-13T00:19:43.341Z,6.82
2019-01-13T00:20:43.308Z,6.72
2019-01-13T00:21:43.372Z,6.78
2019-01-13T00:22:43.289Z,6.67
2019-01-13T00:23:43.284Z,6.70
2019-01-13T00:24:43.293Z,6.77
2019-01-13T00:25:43.269Z,6.66
2019-01-13T00:26:43.331Z,6.74
2019-01-13T00:27:43.234Z,6.75
2019-01-13T00:28:43.237Z,6.70
2019-01-13T00:29:43.237Z,6.67
2019-01-13T00:30:43.216Z,6.74
2019-01-13T00:31:43.209Z,6.66
2019-01-13T00:32:43.241Z,6.69
2019-01-13T00:33:43.175Z,6.70
2019-01-13T00:34:43.160Z,6.72
2019-01-13T00:35:43.165Z,6.74
2019-01-13T00:36:43.152Z,6.67
2019-01-13T00:37:43.174Z,6.69
2019-01-13T00:38:43.123Z,6.69
2019-01-13T00:39:43.168Z,6.69
2019-01-13T00:40:43.147Z,6.75
2019-01-13T00:41:43.081Z,6.67
2019-01-13T00:42:43.095Z,6.70
2019-01-13T00:43:43.187Z,6.75
2019-01-13T00:44:43.877Z,6.67
2019-01-13T00:45:43.036Z,6.70
2019-01-13T00:46:43.030Z,6.67
2019-01-13T00:47:43.030Z,6.70
2019-01-13T00:48:43.058Z,6.66
2019-01-13T00:49:42.984Z,6.70
2019-01-13T00:50:42.978Z,6.69
2019-01-13T00:51:42.963Z,6.70
2019-01-13T00:52:42.978Z,6.74
2019-01-13T00:53:43.071Z,6.70
2019-01-13T00:54:42.999Z,6.69
2019-01-13T00:55:42.923Z,6.75
2019-01-13T00:56:43.044Z,6.70
2019-01-13T00:57:42.918Z,6.67
2019-01-13T00:58:42.911Z,6.64
2019-01-13T00:59:42.892Z,6.67
2019-01-13T01:00:42.865Z,6.69
2019-01-13T01:01:42.867Z,6.67
2019-01-13T01:02:42.930Z,6.70
2019-01-13T01:03:42.848Z,6.72
2019-01-13T01:04:42.835Z,6.70
2019-01-13T01:05:42.847Z,6.67
2019-01-13T01:06:42.815Z,6.67
2019-01-13T01:07:42.791Z,6.69
2019-01-13T01:08:43.138Z,6.70
2019-01-13T01:09:42.777Z,6.63
2019-01-13T01:10:42.776Z,6.63
2019-01-13T01:11:42.771Z,6.66
2019-01-13T01:12:42.742Z,6.60
2019-01-13T01:13:42.932Z,6.49
2019-01-13T01:14:42.831Z,6.56
2019-01-13T01:15:42.737Z,6.54
2019-01-13T01:16:42.700Z,6.56
2019-01-13T01:17:42.695Z,6.59
2019-01-13T01:18:42.684Z,6.60
2019-01-13T01:19:42.662Z,6.54
2019-01-13T01:20:42.711Z,6.52
2019-01-13T01:21:42.654Z,6.52
2019-01-13T01:22:42.633Z,6.60
2019-01-13T01:23:42.627Z,6.54
2019-01-13T01:24:42.617Z,6.54
2019-01-13T01:25:42.684Z,6.52
2019-01-13T01:26:42.667Z,6.54
2019-01-13T01:27:42.590Z,6.54
2019-01-13T01:28:42.579Z,6.57
2019-01-13T01:29:42.552Z,6.51
2019-01-13T01:30:42.555Z,6.56
2019-01-13T01:31:42.534Z,6.51
2019-01-13T01:32:42.601Z,6.57
2019-01-13T01:33:42.513Z,6.54
2019-01-13T01:34:42.512Z,6.52
2019-01-13T01:35:42.484Z,6.57
2019-01-13T01:36:42.489Z,6.51
2019-01-13T01:37:42.533Z,6.56
2019-01-13T01:38:42.470Z,6.60
2019-01-13T01:39:42.458Z,6.60
2019-01-13T01:40:42.440Z,6.54
2019-01-13T01:41:42.428Z,6.49
2019-01-13T01:42:42.413Z,6.49
2019-01-13T01:43:42.473Z,6.49
2019-01-13T01:44:42.395Z,6.49
2019-01-13T01:45:42.382Z,6.52
2019-01-13T01:46:42.365Z,6.59
2019-01-13T01:47:42.349Z,6.56
2019-01-13T01:48:42.407Z,6.49
2019-01-13T01:49:42.338Z,6.63
2019-01-13T01:50:42.377Z,6.60
2019-01-13T01:51:42.332Z,6.63
2019-01-13T01:52:42.330Z,6.54
2019-01-13T01:53:42.285Z,6.63
2019-01-13T01:54:42.281Z,6.60
2019-01-13T01:55:42.266Z,6.64
2019-01-13T01:56:42.304Z,6.62
2019-01-13T01:57:42.252Z,6.62
2019-01-13T01:58:42.240Z,6.49
2019-01-13T01:59:42.226Z,6.63
2019-01-13T02:00:42.234Z,6.63
2019-01-13T02:01:42.202Z,6.64
2019-01-13T02:02:42.263Z,6.52
2019-01-13T02:03:42.197Z,6.51
2019-01-13T02:04:42.192Z,6.51
2019-01-13T02:05:42.200Z,6.44
2019-01-13T02:06:42.139Z,6.54
2019-01-13T02:07:42.189Z,6.51
2019-01-13T02:08:42.176Z,6.52
2019-01-13T02:09:42.116Z,6.54
2019-01-13T02:10:42.096Z,6.59
2019-01-13T02:11:42.099Z,6.48
2019-01-13T02:12:42.075Z,6.54
2019-01-13T02:13:42.434Z,6.56
2019-01-13T02:14:42.060Z,6.56
2019-01-13T02:15:42.061Z,6.51
2019-01-13T02:16:42.033Z,6.54
2019-01-13T02:17:42.026Z,6.51
2019-01-13T02:18:42.076Z,6.59
2019-01-13T02:19:42.040Z,6.54
2019-01-13T02:20:41.997Z,6.54
2019-01-13T02:21:41.985Z,6.51
2019-01-13T02:22:41.969Z,6.62
2019-01-13T02:23:42.032Z,6.52
2019-01-13T02:24:41.947Z,6.66
2019-01-13T02:25:41.949Z,6.66
2019-01-13T02:26:41.941Z,6.66
2019-01-13T02:27:41.932Z,6.63
2019-01-13T02:28:41.978Z,6.63
2019-01-13T02:29:41.890Z,6.63
2019-01-13T02:30:48.831Z,6.66
2019-01-13T02:31:42.922Z,6.67
2019-01-13T02:32:41.878Z,6.66
2019-01-13T02:33:41.908Z,6.64
2019-01-13T02:34:41.840Z,6.75
2019-01-13T02:35:41.834Z,6.66
2019-01-13T02:36:41.837Z,6.72
2019-01-13T02:37:41.817Z,6.67
2019-01-13T02:38:41.803Z,6.69
2019-01-13T02:39:41.851Z,6.74
2019-01-13T02:40:41.788Z,6.70
2019-01-13T02:41:41.766Z,6.72
2019-01-13T02:42:41.753Z,6.72
2019-01-13T02:43:41.748Z,6.74
2019-01-13T02:44:41.792Z,6.64
2019-01-13T02:45:41.712Z,6.67
2019-01-13T02:46:41.774Z,6.66
2019-01-13T02:47:41.690Z,6.67
2019-01-13T02:48:41.704Z,6.67
2019-01-13T02:49:41.677Z,6.69
2019-01-13T02:50:41.692Z,6.70
2019-01-13T02:51:41.652Z,6.69
2019-01-13T02:52:41.707Z,6.74
2019-01-13T02:53:41.721Z,6.67
2019-01-13T02:54:41.624Z,6.70
2019-01-13T02:55:41.649Z,6.72
2019-01-13T02:56:41.632Z,6.67
2019-01-13T02:57:41.737Z,6.72
2019-01-13T02:58:41.600Z,6.69
2019-01-13T02:59:41.577Z,6.69
2019-01-13T03:00:41.562Z,6.72
2019-01-13T03:01:41.556Z,6.75
2019-01-13T03:02:41.591Z,6.70
2019-01-13T03:03:41.537Z,6.66
2019-01-13T03:04:41.499Z,6.67
2019-01-13T03:05:41.532Z,6.74
2019-01-13T03:06:41.510Z,6.74
2019-01-13T03:07:41.480Z,6.70
2019-01-13T03:08:41.559Z,6.67
2019-01-13T03:09:41.446Z,6.66
2019-01-13T03:10:41.441Z,6.72
2019-01-13T03:11:41.456Z,6.70
2019-01-13T03:12:41.437Z,6.72
2019-01-13T03:13:41.664Z,6.62
2019-01-13T03:14:41.460Z,6.64
2019-01-13T03:15:41.382Z,6.62
2019-01-13T03:16:41.375Z,6.64
2019-01-13T03:17:41.368Z,6.59
2019-01-13T03:18:41.359Z,6.52
2019-01-13T03:19:41.402Z,6.64
2019-01-13T03:20:41.333Z,6.51
2019-01-13T03:21:41.316Z,6.56
2019-01-13T03:22:41.312Z,6.49
2019-01-13T03:23:41.309Z,6.49
2019-01-13T03:24:41.341Z,6.54
2019-01-13T03:25:41.367Z,6.52
2019-01-13T03:26:41.284Z,6.46
2019-01-13T03:27:41.393Z,6.49
2019-01-13T03:28:41.243Z,6.54
2019-01-13T03:29:41.242Z,6.52
2019-01-13T03:30:41.217Z,6.41
2019-01-13T03:31:41.277Z,6.56
2019-01-13T03:32:41.214Z,6.49
2019-01-13T03:33:41.191Z,6.51
2019-01-13T03:34:41.185Z,6.45
2019-01-13T03:35:41.188Z,6.48
2019-01-13T03:36:41.239Z,6.56
2019-01-13T03:37:41.143Z,6.54
2019-01-13T03:38:41.141Z,6.54
2019-01-13T03:39:41.134Z,6.44
2019-01-13T03:40:41.126Z,6.52
2019-01-13T03:41:41.112Z,6.51
2019-01-13T03:42:41.213Z,6.44
2019-01-13T03:43:41.161Z,6.52
2019-01-13T03:44:41.065Z,6.48
2019-01-13T03:45:41.056Z,6.48
2019-01-13T03:46:41.071Z,6.44
2019-01-13T03:47:41.059Z,6.39
2019-01-13T03:48:41.017Z,6.48
2019-01-13T03:49:41.075Z,6.44
2019-01-13T03:50:40.995Z,6.39
2019-01-13T03:51:40.993Z,6.41
2019-01-13T03:52:40.991Z,6.46
2019-01-13T03:53:40.967Z,6.46
2019-01-13T03:54:41.016Z,6.41
2019-01-13T03:55:40.939Z,6.42
2019-01-13T03:56:40.934Z,6.38
2019-01-13T03:57:40.930Z,6.42
2019-01-13T03:58:40.928Z,6.45
2019-01-13T03:59:40.899Z,6.42
2019-01-13T04:00:40.962Z,6.39
2019-01-13T04:01:40.968Z,6.49
2019-01-13T04:02:40.886Z,6.42
2019-01-13T04:03:40.856Z,6.52
2019-01-13T04:04:40.862Z,6.48
2019-01-13T04:05:40.892Z,6.45
2019-01-13T04:06:40.823Z,6.52
2019-01-13T04:07:40.822Z,6.49
2019-01-13T04:08:40.795Z,6.49
2019-01-13T04:09:40.792Z,6.46
2019-01-13T04:10:40.800Z,6.46
2019-01-13T04:11:40.832Z,6.49
2019-01-13T04:12:40.830Z,6.52
2019-01-13T04:13:40.747Z,6.49
2019-01-13T04:14:40.778Z,6.39
2019-01-13T04:15:40.734Z,6.42
2019-01-13T04:16:40.738Z,6.51
2019-01-13T04:17:41.088Z,6.45
2019-01-13T04:18:40.691Z,6.38
2019-01-13T04:19:40.682Z,6.49
2019-01-13T04:20:40.674Z,6.48
2019-01-13T04:21:40.671Z,6.56
2019-01-13T04:22:40.660Z,6.51
2019-01-13T04:23:40.724Z,6.52
2019-01-13T04:24:40.623Z,6.45
2019-01-13T04:25:40.622Z,6.51
2019-01-13T04:26:40.616Z,6.52
2019-01-13T04:27:40.602Z,6.54
2019-01-13T04:28:40.589Z,6.51
2019-01-13T04:29:40.673Z,6.48
2019-01-13T04:30:40.574Z,6.44
2019-01-13T04:31:40.578Z,6.51
2019-01-13T04:32:40.616Z,6.52
2019-01-13T04:33:40.630Z,6.60
2019-01-13T04:34:40.523Z,6.57
2019-01-13T04:35:40.544Z,6.49
2019-01-13T04:36:40.517Z,6.54
2019-01-13T04:37:40.496Z,6.46
2019-01-13T04:38:40.554Z,6.48
2019-01-13T04:39:40.549Z,6.52
2019-01-13T04:40:40.502Z,6.56
2019-01-13T04:41:40.468Z,6.44
2019-01-13T04:42:40.425Z,6.51
2019-01-13T04:43:40.422Z,6.54
2019-01-13T04:44:40.522Z,6.52
2019-01-13T04:45:40.477Z,6.44
2019-01-13T04:46:40.440Z,6.52
2019-01-13T04:47:40.584Z,6.52
2019-01-13T04:48:40.391Z,6.45
2019-01-13T04:49:40.365Z,6.41
2019-01-13T04:50:40.365Z,6.42
2019-01-13T04:51:40.370Z,6.41
2019-01-13T04:52:40.383Z,6.45
2019-01-13T04:53:40.314Z,6.45
2019-01-13T04:54:40.297Z,6.44
2019-01-13T04:55:40.446Z,6.39
2019-01-13T04:56:40.275Z,6.42
2019-01-13T04:57:40.262Z,6.49
2019-01-13T04:58:40.260Z,6.45
2019-01-13T04:59:40.268Z,6.51
2019-01-13T05:00:40.230Z,6.44
2019-01-13T05:01:40.322Z,6.51
2019-01-13T05:02:40.211Z,6.44
2019-01-13T05:03:40.193Z,6.49
2019-01-13T05:04:40.259Z,6.42
2019-01-13T05:05:40.210Z,6.41
2019-01-13T05:06:40.238Z,6.49
2019-01-13T05:07:40.156Z,6.42
2019-01-13T05:08:40.246Z,6.44
2019-01-13T05:09:40.188Z,6.44
2019-01-13T05:10:40.155Z,6.45
2019-01-13T05:11:40.109Z,6.45
2019-01-13T05:12:40.134Z,6.39
2019-01-13T05:13:40.128Z,6.39
2019-01-13T05:14:40.178Z,6.46
2019-01-13T05:15:40.205Z,6.45
2019-01-13T05:16:40.118Z,6.48
2019-01-13T05:17:40.066Z,6.39
2019-01-13T05:18:40.035Z,6.38
2019-01-13T05:19:40.089Z,6.42
2019-01-13T05:20:40.291Z,6.44
2019-01-13T05:21:40.054Z,6.46
2019-01-13T05:22:39.983Z,6.46
2019-01-13T05:23:39.982Z,6.51
2019-01-13T05:24:40.040Z,6.51
2019-01-13T05:25:40.062Z,6.54
2019-01-13T05:26:39.963Z,6.59
2019-01-13T05:27:40.021Z,6.52
2019-01-13T05:28:39.920Z,6.54
2019-01-13T05:29:39.910Z,6.52
2019-01-13T05:30:39.916Z,6.60
2019-01-13T05:31:42.110Z,6.59
2019-01-13T05:32:39.892Z,6.57
2019-01-13T05:33:39.875Z,6.46
2019-01-13T05:34:39.855Z,6.49
2019-01-13T05:35:39.847Z,6.52
2019-01-13T05:36:39.896Z,6.46
2019-01-13T05:37:39.847Z,6.56
2019-01-13T05:38:39.903Z,6.51
2019-01-13T05:39:39.803Z,6.49
2019-01-13T05:40:39.783Z,6.52
2019-01-13T05:41:39.781Z,6.48
2019-01-13T05:42:39.774Z,6.51
2019-01-13T05:43:39.788Z,6.48
2019-01-13T05:44:39.846Z,6.54
2019-01-13T05:45:39.729Z,6.57
2019-01-13T05:46:39.756Z,6.48
2019-01-13T05:47:39.735Z,6.54
2019-01-13T05:48:39.759Z,6.49
2019-01-13T05:49:39.694Z,6.56
2019-01-13T05:50:39.745Z,6.52
2019-01-13T05:51:39.667Z,6.54
2019-01-13T05:52:39.660Z,6.52
2019-01-13T05:53:39.656Z,6.54
2019-01-13T05:54:39.669Z,6.52
2019-01-13T05:55:39.764Z,6.44
2019-01-13T05:56:39.623Z,6.51
2019-01-13T05:57:39.629Z,6.52
2019-01-13T05:58:39.599Z,6.49
2019-01-13T05:59:39.623Z,6.51
2019-01-13T06:00:39.609Z,6.44
2019-01-13T06:01:39.647Z,6.49
2019-01-13T06:02:39.555Z,6.52
2019-01-13T06:03:39.551Z,6.42
2019-01-13T06:04:39.535Z,6.52
2019-01-13T06:05:39.517Z,6.38
2019-01-13T06:06:39.505Z,6.46
2019-01-13T06:07:39.583Z,6.44
2019-01-13T06:08:39.509Z,6.42
2019-01-13T06:09:39.482Z,6.41
2019-01-13T06:10:39.490Z,6.44
2019-01-13T06:11:39.478Z,6.41
2019-01-13T06:12:39.432Z,6.38
2019-01-13T06:13:39.494Z,6.44
2019-01-13T06:14:39.429Z,6.38
2019-01-13T06:15:39.720Z,6.39
2019-01-13T06:16:39.407Z,6.38
2019-01-13T06:17:39.386Z,6.39
2019-01-13T06:18:40.048Z,6.38
2019-01-13T06:19:39.375Z,6.42
2019-01-13T06:20:39.352Z,6.44
2019-01-13T06:21:39.356Z,6.39
2019-01-13T06:22:39.347Z,6.35
2019-01-13T06:23:39.385Z,6.39
2019-01-13T06:24:39.345Z,6.46
2019-01-13T06:25:39.370Z,6.44
2019-01-13T06:26:39.283Z,6.46
2019-01-13T06:27:39.297Z,6.44
2019-01-13T06:28:39.280Z,6.49
2019-01-13T06:29:39.255Z,6.41
2019-01-13T06:30:39.262Z,6.49
2019-01-13T06:31:39.305Z,6.46
2019-01-13T06:32:39.218Z,6.48
2019-01-13T06:33:39.221Z,6.52
2019-01-13T06:34:39.223Z,6.52
2019-01-13T06:35:39.188Z,6.49
2019-01-13T06:36:39.188Z,6.41
2019-01-13T06:37:39.230Z,6.46
2019-01-13T06:38:39.153Z,6.41
2019-01-13T06:39:39.156Z,6.51
2019-01-13T06:40:39.153Z,6.45
2019-01-13T06:41:39.122Z,6.49
2019-01-13T06:42:39.108Z,6.52
2019-01-13T06:43:39.220Z,6.41
2019-01-13T06:44:39.095Z,6.49
2019-01-13T06:45:39.083Z,6.51
2019-01-13T06:46:39.080Z,6.54
2019-01-13T06:47:39.064Z,6.52
2019-01-13T06:48:39.118Z,6.57
2019-01-13T06:49:39.044Z,6.54
2019-01-13T06:50:39.025Z,6.48
2019-01-13T06:51:39.019Z,6.49
2019-01-13T06:52:39.009Z,6.49
2019-01-13T06:53:39.086Z,6.54
2019-01-13T06:54:38.986Z,6.48
2019-01-13T06:55:38.970Z,6.62
2019-01-13T06:56:39.775Z,6.64
2019-01-13T06:57:38.951Z,6.54
2019-01-13T06:58:39.015Z,6.49
2019-01-13T06:59:38.933Z,6.64
2019-01-13T07:00:39.032Z,6.54
2019-01-13T07:01:38.904Z,6.62
2019-01-13T07:02:38.891Z,6.62
2019-01-13T07:03:38.885Z,6.66
2019-01-13T07:04:38.872Z,6.62
2019-01-13T07:05:38.938Z,6.67
2019-01-13T07:06:38.855Z,6.63
2019-01-13T07:07:38.831Z,6.62
2019-01-13T07:08:38.843Z,6.64
2019-01-13T07:09:38.832Z,6.62
2019-01-13T07:10:38.871Z,6.62
2019-01-13T07:11:38.889Z,6.63
2019-01-13T07:12:38.792Z,6.66
2019-01-13T07:13:38.772Z,6.66
2019-01-13T07:14:38.758Z,6.69
2019-01-13T07:15:38.756Z,6.64
2019-01-13T07:16:38.859Z,6.62
2019-01-13T07:17:38.811Z,6.72
2019-01-13T07:18:38.737Z,6.67
2019-01-13T07:19:38.803Z,6.75
2019-01-13T07:20:38.698Z,6.72
2019-01-13T07:21:38.680Z,6.72
2019-01-13T07:22:38.674Z,6.70
2019-01-13T07:23:38.668Z,6.70
2019-01-13T07:24:38.734Z,6.64
2019-01-13T07:25:38.642Z,6.70
2019-01-13T07:26:38.628Z,6.70
2019-01-13T07:27:38.640Z,6.67
2019-01-13T07:28:38.621Z,6.69
2019-01-13T07:29:38.586Z,6.70
2019-01-13T07:30:38.655Z,6.63
2019-01-13T07:31:38.572Z,6.72
2019-01-13T07:32:38.594Z,6.66
2019-01-13T07:33:38.688Z,6.75
2019-01-13T07:34:38.547Z,6.66
2019-01-13T07:35:38.592Z,6.75
2019-01-13T07:36:38.515Z,6.64
2019-01-13T07:37:38.503Z,6.70
2019-01-13T07:38:38.497Z,6.70
2019-01-13T07:39:38.507Z,6.70
2019-01-13T07:40:38.478Z,6.74
2019-01-13T07:41:38.531Z,6.75
2019-01-13T07:42:38.451Z,6.74
2019-01-13T07:43:38.442Z,6.78
2019-01-13T07:44:38.431Z,6.77
2019-01-13T07:45:38.431Z,6.74
2019-01-13T07:46:38.431Z,6.79
2019-01-13T07:47:38.461Z,6.79
2019-01-13T07:48:38.466Z,6.88
2019-01-13T07:49:38.727Z,6.84
2019-01-13T07:50:38.377Z,6.79
2019-01-13T07:51:38.359Z,6.88
2019-01-13T07:52:38.350Z,6.75
2019-01-13T07:53:38.355Z,6.82
2019-01-13T07:54:38.380Z,6.77
2019-01-13T07:55:38.316Z,6.79
2019-01-13T07:56:38.301Z,6.78
2019-01-13T07:57:38.300Z,6.88
2019-01-13T07:58:38.307Z,6.82
2019-01-13T07:59:38.260Z,6.87
2019-01-13T08:00:38.329Z,6.82
2019-01-13T08:01:38.260Z,6.81
2019-01-13T08:02:38.226Z,6.89
2019-01-13T08:03:38.223Z,6.82
2019-01-13T08:04:38.210Z,6.96
2019-01-13T08:05:38.294Z,6.95
2019-01-13T08:06:38.202Z,6.87
2019-01-13T08:07:38.191Z,6.88
2019-01-13T08:08:38.197Z,6.92
2019-01-13T08:09:38.157Z,6.88
2019-01-13T08:10:38.146Z,6.92
2019-01-13T08:11:38.241Z,6.99
2019-01-13T08:12:38.133Z,6.96
2019-01-13T08:13:38.127Z,6.96
2019-01-13T08:14:38.093Z,6.99
2019-01-13T08:15:38.091Z,6.99
2019-01-13T08:16:38.139Z,6.97
2019-01-13T08:17:38.267Z,7.00
2019-01-13T08:18:38.054Z,6.99
2019-01-13T08:19:38.404Z,6.95
2019-01-13T08:20:38.057Z,7.02
2019-01-13T08:21:38.045Z,7.02
2019-01-13T08:22:38.093Z,6.97
2019-01-13T08:23:38.123Z,7.06
2019-01-13T08:24:37.992Z,7.06
2019-01-13T08:25:37.997Z,7.07
2019-01-13T08:26:37.965Z,6.99
2019-01-13T08:27:37.962Z,7.10
2019-01-13T08:28:37.983Z,7.07
2019-01-13T08:29:37.958Z,7.07
2019-01-13T08:30:37.934Z,7.06
2019-01-13T08:31:37.955Z,7.14
2019-01-13T08:32:37.902Z,7.05
2019-01-13T08:33:37.887Z,7.10
2019-01-13T08:34:37.958Z,7.10
2019-01-13T08:35:37.874Z,7.05
2019-01-13T08:36:37.873Z,7.10
2019-01-13T08:37:37.844Z,7.20
2019-01-13T08:38:37.834Z,7.28
2019-01-13T08:39:37.901Z,7.24
2019-01-13T08:40:37.816Z,7.23
2019-01-13T08:41:37.811Z,7.23
2019-01-13T08:42:37.793Z,7.28
2019-01-13T08:43:37.798Z,7.28
2019-01-13T08:44:37.778Z,7.29
2019-01-13T08:45:37.829Z,7.29
2019-01-13T08:46:37.750Z,7.35
2019-01-13T08:47:37.739Z,7.25
2019-01-13T08:48:37.725Z,7.23
2019-01-13T08:49:37.714Z,7.24
2019-01-13T08:50:37.772Z,7.23
2019-01-13T08:51:37.685Z,7.25
2019-01-13T08:52:37.684Z,7.25
2019-01-13T08:53:37.681Z,7.28
2019-01-13T08:54:37.664Z,7.29
2019-01-13T08:55:37.808Z,7.31
2019-01-13T08:56:37.656Z,7.32
2019-01-13T08:57:37.860Z,7.29
2019-01-13T08:58:37.615Z,7.39
2019-01-13T08:59:37.613Z,7.38
2019-01-13T09:00:37.598Z,7.24
2019-01-13T09:01:37.754Z,7.21
2019-01-13T09:02:37.590Z,7.20
2019-01-13T09:03:37.641Z,7.23
2019-01-13T09:04:37.564Z,7.24
2019-01-13T09:05:37.554Z,7.28
2019-01-13T09:06:37.588Z,7.25
2019-01-13T09:07:37.531Z,7.33
2019-01-13T09:08:37.574Z,7.28
2019-01-13T09:09:37.498Z,7.23
2019-01-13T09:10:37.509Z,7.33
2019-01-13T09:11:37.501Z,7.36
2019-01-13T09:12:37.502Z,7.28
2019-01-13T09:13:37.530Z,7.25
2019-01-13T09:14:37.450Z,7.25
2019-01-13T09:15:37.437Z,7.28
2019-01-13T09:16:37.426Z,7.21
2019-01-13T09:17:37.404Z,7.24
2019-01-13T09:18:37.705Z,7.32
2019-01-13T09:19:37.475Z,7.29
2019-01-13T09:20:37.377Z,7.25
2019-01-13T09:21:37.362Z,7.31
2019-01-13T09:22:37.362Z,7.25
2019-01-13T09:23:37.336Z,7.25
2019-01-13T09:24:37.394Z,7.28
2019-01-13T09:25:37.312Z,7.17
2019-01-13T09:26:38.837Z,7.29
2019-01-13T09:27:37.289Z,7.33
2019-01-13T09:28:37.280Z,7.33
2019-01-13T09:29:42.392Z,7.28
2019-01-13T09:30:38.339Z,7.31
2019-01-13T09:31:37.318Z,7.33
2019-01-13T09:32:39.601Z,7.18
2019-01-13T09:33:37.261Z,7.20
2019-01-13T09:34:37.214Z,7.24
2019-01-13T09:35:37.203Z,7.21
2019-01-13T09:36:37.253Z,7.21
2019-01-13T09:37:37.193Z,7.18
2019-01-13T09:38:37.182Z,7.07
2019-01-13T09:39:37.161Z,7.20
2019-01-13T09:40:37.182Z,7.14
2019-01-13T09:41:37.249Z,7.20
2019-01-13T09:42:37.130Z,7.20
2019-01-13T09:43:37.172Z,7.18
2019-01-13T09:44:37.109Z,7.20
2019-01-13T09:45:37.088Z,7.18
2019-01-13T09:46:37.083Z,7.24
2019-01-13T09:47:37.158Z,7.17
2019-01-13T09:48:37.066Z,7.20
2019-01-13T09:49:37.094Z,7.23
2019-01-13T09:50:37.050Z,7.18
2019-01-13T09:51:37.040Z,7.23
2019-01-13T09:52:37.011Z,7.21
2019-01-13T09:53:37.080Z,7.23
2019-01-13T09:54:36.992Z,7.25
2019-01-13T09:55:37.048Z,7.31
2019-01-13T09:56:36.995Z,7.28
2019-01-13T09:57:37.164Z,7.28
2019-01-13T09:58:37.807Z,7.29
2019-01-13T09:59:36.951Z,7.29
2019-01-13T10:00:36.924Z,7.24
2019-01-13T10:01:36.990Z,7.38
2019-01-13T10:02:36.918Z,7.25
2019-01-13T10:03:37.041Z,7.33
2019-01-13T10:04:36.885Z,7.21
2019-01-13T10:05:36.870Z,7.25
2019-01-13T10:06:36.866Z,7.29
2019-01-13T10:07:36.872Z,7.25
2019-01-13T10:08:36.840Z,7.28
2019-01-13T10:09:36.902Z,7.36
2019-01-13T10:10:36.817Z,7.25
2019-01-13T10:11:36.839Z,7.23
2019-01-13T10:12:36.797Z,7.29
2019-01-13T10:13:36.796Z,7.35
2019-01-13T10:14:36.835Z,7.32
2019-01-13T10:15:36.830Z,7.24
2019-01-13T10:16:36.763Z,7.28
2019-01-13T10:17:36.734Z,7.25
2019-01-13T10:18:36.747Z,7.18
2019-01-13T10:19:36.820Z,7.32
2019-01-13T10:20:36.708Z,7.18
2019-01-13T10:21:36.804Z,7.21
2019-01-13T10:22:36.694Z,7.31
2019-01-13T10:23:36.674Z,7.18
2019-01-13T10:24:36.674Z,7.21
2019-01-13T10:25:36.715Z,7.20
2019-01-13T10:26:36.768Z,7.21
2019-01-13T10:27:36.629Z,7.13
2019-01-13T10:28:36.619Z,7.06
2019-01-13T10:29:36.610Z,7.14
2019-01-13T10:30:36.605Z,7.14
2019-01-13T10:31:36.599Z,7.10
2019-01-13T10:32:36.743Z,7.10
2019-01-13T10:33:36.689Z,7.05
2019-01-13T10:34:36.550Z,7.15
2019-01-13T10:35:36.582Z,7.18
2019-01-13T10:36:36.541Z,7.24
2019-01-13T10:37:36.542Z,7.20
2019-01-13T10:38:36.522Z,7.25
2019-01-13T10:39:36.604Z,7.17
2019-01-13T10:40:36.489Z,7.29
2019-01-13T10:41:36.502Z,7.25
2019-01-13T10:42:36.485Z,7.32
2019-01-13T10:43:36.472Z,7.25
2019-01-13T10:44:36.440Z,7.29
2019-01-13T10:45:36.496Z,7.29
2019-01-13T10:46:36.418Z,7.36
2019-01-13T10:47:36.408Z,7.36
2019-01-13T10:48:36.534Z,7.36
2019-01-13T10:49:36.423Z,7.36
2019-01-13T10:50:36.384Z,7.36
2019-01-13T10:51:36.362Z,7.47
2019-01-13T10:52:36.422Z,7.33
2019-01-13T10:53:36.342Z,7.40
2019-01-13T10:54:36.451Z,7.35
2019-01-13T10:55:36.353Z,7.35
2019-01-13T10:56:36.356Z,7.40
2019-01-13T10:57:36.300Z,7.29
2019-01-13T10:58:36.290Z,7.31
2019-01-13T10:59:36.287Z,7.42
2019-01-13T11:00:36.325Z,7.31
2019-01-13T11:01:36.249Z,7.33
2019-01-13T11:02:36.237Z,7.36
2019-01-13T11:03:36.232Z,7.36
2019-01-13T11:04:36.243Z,7.24
2019-01-13T11:05:36.324Z,7.38
2019-01-13T11:06:36.208Z,7.24
2019-01-13T11:07:36.246Z,7.33
2019-01-13T11:08:36.174Z,7.32
2019-01-13T11:09:36.172Z,7.25
2019-01-13T11:10:36.162Z,7.23
2019-01-13T11:11:36.160Z,7.25
2019-01-13T11:12:36.229Z,7.23
2019-01-13T11:13:36.134Z,7.24
2019-01-13T11:14:36.113Z,7.25
2019-01-13T11:15:36.154Z,7.28
2019-01-13T11:16:36.137Z,7.29
2019-01-13T11:17:36.086Z,7.31
2019-01-13T11:18:36.152Z,7.33
2019-01-13T11:19:36.083Z,7.31
2019-01-13T11:20:36.236Z,7.33
2019-01-13T11:21:36.029Z,7.28
2019-01-13T11:22:36.029Z,7.21
2019-01-13T11:23:36.036Z,7.28
2019-01-13T11:24:36.050Z,7.29
2019-01-13T11:25:35.982Z,7.21
2019-01-13T11:26:36.139Z,7.28
2019-01-13T11:27:35.978Z,7.24
2019-01-13T11:28:35.963Z,7.17
2019-01-13T11:29:35.942Z,7.24
2019-01-13T11:30:35.956Z,7.21
2019-01-13T11:31:36.682Z,7.29
2019-01-13T11:32:35.995Z,7.15
2019-01-13T11:33:36.240Z,7.20
2019-01-13T11:34:35.892Z,7.29
2019-01-13T11:35:35.963Z,7.33
2019-01-13T11:36:35.860Z,7.29
2019-01-13T11:37:35.979Z,7.23
2019-01-13T11:38:35.848Z,7.31
2019-01-13T11:39:35.840Z,7.24
2019-01-13T11:40:35.969Z,7.21
2019-01-13T11:41:35.836Z,7.18
2019-01-13T11:42:35.827Z,7.17
2019-01-13T11:43:35.857Z,7.23
2019-01-13T11:44:35.799Z,7.15
2019-01-13T11:45:35.818Z,7.18
2019-01-13T11:46:35.823Z,7.15
2019-01-13T11:47:35.756Z,7.11
2019-01-13T11:48:35.771Z,7.20
2019-01-13T11:49:35.720Z,7.18
2019-01-13T11:50:35.719Z,7.17
2019-01-13T11:51:35.703Z,7.21
2019-01-13T11:52:35.806Z,7.18
2019-01-13T11:53:35.678Z,7.24
2019-01-13T11:54:35.817Z,7.17
2019-01-13T11:55:35.660Z,7.18
2019-01-13T11:56:35.659Z,7.23
2019-01-13T11:57:35.648Z,7.17
2019-01-13T11:58:36.254Z,7.24
2019-01-13T11:59:35.644Z,7.21
2019-01-13T12:00:35.901Z,7.14
2019-01-13T12:01:35.616Z,7.23
2019-01-13T12:02:35.585Z,7.23
2019-01-13T12:03:35.642Z,7.23
2019-01-13T12:04:35.691Z,7.25
2019-01-13T12:05:35.551Z,7.17
2019-01-13T12:06:35.535Z,7.15
2019-01-13T12:07:35.531Z,7.10
2019-01-13T12:08:35.519Z,7.20
2019-01-13T12:09:35.574Z,7.10
2019-01-13T12:10:35.497Z,7.15
2019-01-13T12:11:35.479Z,7.18
2019-01-13T12:12:35.478Z,7.05
2019-01-13T12:13:35.482Z,7.10
2019-01-13T12:14:35.452Z,7.07
2019-01-13T12:15:35.562Z,7.05
2019-01-13T12:16:35.432Z,7.06
2019-01-13T12:17:35.441Z,7.11
2019-01-13T12:18:40.508Z,7.10
2019-01-13T12:19:36.407Z,7.05
2019-01-13T12:20:35.392Z,7.10
2019-01-13T12:21:35.675Z,7.02
2019-01-13T12:22:35.399Z,6.99
2019-01-13T12:23:35.357Z,6.93
2019-01-13T12:24:35.342Z,6.99
2019-01-13T12:25:35.424Z,7.05
2019-01-13T12:26:35.394Z,7.02
2019-01-13T12:27:35.320Z,7.03
2019-01-13T12:28:35.290Z,6.93
2019-01-13T12:29:35.635Z,6.88
2019-01-13T12:30:35.301Z,6.89
2019-01-13T12:31:35.365Z,6.89
2019-01-13T12:32:35.261Z,6.92
2019-01-13T12:33:35.323Z,6.93
2019-01-13T12:34:35.228Z,6.92
2019-01-13T12:35:35.356Z,6.97
2019-01-13T12:36:35.202Z,6.89
2019-01-13T12:37:35.395Z,6.95
2019-01-13T12:38:35.187Z,6.88
2019-01-13T12:39:35.267Z,6.85
2019-01-13T12:40:35.179Z,6.89
2019-01-13T12:41:35.185Z,6.97
2019-01-13T12:42:35.153Z,6.99
2019-01-13T12:43:35.257Z,6.92
2019-01-13T12:44:35.128Z,6.92
2019-01-13T12:45:35.105Z,6.96
2019-01-13T12:46:35.196Z,6.93
2019-01-13T12:47:35.127Z,6.96
2019-01-13T12:48:35.080Z,6.92
2019-01-13T12:49:35.272Z,6.93
2019-01-13T12:50:35.165Z,6.88
2019-01-13T12:51:35.099Z,6.92
2019-01-13T12:52:35.029Z,6.96
2019-01-13T12:53:35.037Z,6.97
2019-01-13T12:54:35.165Z,6.95
2019-01-13T12:55:35.533Z,6.99
2019-01-13T12:56:34.985Z,7.06
2019-01-13T12:57:34.972Z,7.10
2019-01-13T12:58:34.957Z,6.99
2019-01-13T12:59:34.954Z,7.06
2019-01-13T13:00:34.954Z,7.07
2019-01-13T13:01:35.027Z,6.97
2019-01-13T13:02:34.928Z,7.03
2019-01-13T13:03:34.904Z,7.05
2019-01-13T13:04:34.896Z,7.00
2019-01-13T13:05:34.893Z,7.05
2019-01-13T13:06:35.001Z,6.99
2019-01-13T13:07:34.872Z,7.05
2019-01-13T13:08:34.886Z,7.02
2019-01-13T13:09:34.834Z,7.00
2019-01-13T13:10:34.841Z,7.02
2019-01-13T13:11:34.822Z,7.13
2019-01-13T13:12:34.858Z,7.13
2019-01-13T13:13:34.810Z,7.14
2019-01-13T13:14:34.782Z,7.17
2019-01-13T13:15:34.788Z,7.10
2019-01-13T13:16:34.765Z,7.15
2019-01-13T13:17:34.848Z,7.17
2019-01-13T13:18:34.749Z,7.21